createdAt,value
2022-10-02T00:00:08.022Z,2.30
2022-10-02T00:10:09.269Z,2.35
2022-10-02T00:20:10.548Z,2.45
2022-10-02T00:30:11.775Z,2.50
2022-10-02T00:40:13.080Z,2.85
2022-10-02T00:50:14.299Z,2.97
2022-10-02T01:00:15.509Z,2.58
2022-10-02T01:10:16.753Z,2.47
2022-10-02T01:20:18.023Z,2.78
2022-10-02T01:30:19.324Z,2.70
2022-10-02T01:40:20.525Z,2.78
2022-10-02T01:50:21.767Z,2.70
2022-10-02T02:00:23.015Z,2.63
2022-10-02T02:10:24.297Z,2.55
2022-10-02T02:20:25.632Z,2.53
2022-10-02T02:30:26.826Z,2.42
2022-10-02T02:40:28.082Z,2.05
2022-10-02T02:50:29.319Z,2.92
2022-10-02T03:00:30.539Z,2.60
2022-10-02T03:10:31.805Z,2.13
2022-10-02T03:20:33.059Z,2.10
2022-10-02T03:30:34.306Z,2.00
2022-10-02T03:40:35.535Z,1.80
2022-10-02T03:50:36.764Z,1.25
2022-10-02T04:00:37.993Z,1.80
2022-10-02T04:10:39.230Z,1.40
2022-10-02T04:20:40.495Z,1.70
2022-10-02T04:30:41.753Z,2.03
2022-10-02T04:40:42.974Z,1.98
2022-10-02T04:50:44.194Z,1.75
2022-10-02T05:00:45.559Z,2.03
2022-10-02T05:10:46.926Z,2.13
2022-10-02T05:20:48.206Z,2.33
2022-10-02T05:30:49.450Z,2.63
2022-10-02T05:40:50.698Z,2.80
2022-10-02T05:50:51.924Z,2.85
2022-10-02T06:00:53.280Z,2.70
2022-10-02T06:10:54.552Z,2.60
2022-10-02T06:20:55.782Z,2.78
2022-10-02T06:30:57.008Z,2.65
2022-10-02T06:40:58.294Z,2.67
2022-10-02T06:50:59.671Z,2.50
2022-10-02T07:01:01.104Z,2.05
2022-10-02T07:11:02.349Z,2.40
2022-10-02T07:21:03.692Z,2.17
2022-10-02T07:31:05.184Z,2.22
2022-10-02T07:41:06.530Z,2.30
2022-10-02T07:51:07.843Z,2.40
2022-10-02T08:01:09.073Z,2.58
2022-10-02T08:11:10.338Z,2.30
2022-10-02T08:21:11.653Z,2.40
2022-10-02T08:31:13.043Z,2.35
2022-10-02T08:41:14.447Z,2.20
2022-10-02T08:51:15.760Z,2.00
2022-10-02T09:11:46.222Z,2.25
2022-10-02T09:21:47.594Z,2.50
2022-10-02T09:42:05.164Z,2.42
2022-10-02T09:52:06.595Z,2.05
2022-10-02T10:02:08.037Z,2.33
2022-10-02T10:12:09.495Z,2.10
2022-10-02T10:22:10.844Z,2.10
2022-10-02T10:32:12.212Z,2.30
2022-10-02T10:42:13.537Z,2.40
2022-10-02T10:52:14.782Z,2.15
2022-10-02T11:02:16.173Z,2.00
2022-10-02T11:12:17.529Z,2.28
2022-10-02T11:22:18.947Z,2.20
2022-10-02T11:32:20.283Z,1.95
2022-10-02T11:42:21.584Z,2.05
2022-10-02T11:52:22.913Z,1.98
2022-10-02T12:02:24.354Z,2.17
2022-10-02T12:12:27.813Z,2.15
2022-10-02T12:22:29.421Z,2.20
2022-10-02T12:32:30.820Z,2.05
2022-10-02T12:42:32.025Z,2.30
2022-10-02T12:52:33.461Z,2.20
2022-10-02T13:02:59.034Z,2.30
2022-10-02T13:12:56.159Z,2.70
2022-10-02T13:22:57.623Z,2.20
2022-10-02T13:32:58.962Z,2.25
2022-10-02T13:43:00.299Z,2.08
2022-10-02T13:53:07.838Z,1.67
2022-10-02T14:03:13.893Z,2.03
2022-10-02T14:13:23.627Z,1.90
2022-10-02T14:23:31.747Z,1.70
2022-10-02T14:33:39.688Z,2.17
2022-10-02T14:43:46.726Z,1.65
2022-10-02T14:53:56.252Z,1.60
2022-10-02T15:04:06.578Z,1.73
2022-10-02T15:14:12.369Z,1.60
2022-10-02T15:24:21.036Z,1.80
2022-10-02T15:34:29.758Z,1.80
2022-10-02T15:44:35.008Z,1.83
2022-10-02T16:05:05.072Z,1.55
2022-10-02T16:15:06.421Z,1.67
2022-10-02T16:25:07.974Z,1.92
2022-10-02T16:35:19.706Z,1.60
2022-10-02T16:45:24.942Z,1.92
2022-10-02T17:05:54.989Z,2.03
2022-10-02T17:15:56.257Z,1.70
2022-10-02T17:25:57.656Z,1.70
2022-10-02T17:35:59.056Z,2.05
2022-10-02T17:46:00.446Z,1.50
2022-10-02T17:56:01.797Z,1.80
2022-10-02T18:06:03.068Z,1.83
2022-10-02T18:16:04.497Z,1.50
2022-10-02T18:26:05.793Z,1.60
2022-10-02T18:36:07.107Z,1.70
2022-10-02T18:46:08.433Z,1.75
2022-10-02T18:56:09.813Z,1.70
2022-10-02T19:06:11.060Z,2.00
2022-10-02T19:16:12.494Z,1.70
2022-10-02T19:26:13.882Z,1.52
2022-10-02T19:36:15.233Z,1.73
2022-10-02T19:46:16.620Z,1.75
2022-10-02T19:56:18.008Z,1.77
2022-10-02T20:06:19.342Z,1.80
2022-10-02T20:16:20.770Z,1.75
2022-10-02T20:26:22.221Z,1.95
2022-10-02T20:36:23.615Z,1.77
2022-10-02T20:46:25.157Z,2.25
2022-10-02T20:56:26.527Z,1.85
2022-10-02T21:06:27.782Z,2.83
2022-10-02T21:16:29.168Z,2.47
2022-10-02T21:26:30.437Z,2.60
2022-10-02T21:36:31.781Z,3.53
2022-10-02T21:46:33.060Z,2.60
2022-10-02T21:56:34.340Z,2.50
2022-10-02T22:06:35.577Z,2.30
2022-10-02T22:16:36.800Z,2.20
2022-10-02T22:26:38.186Z,2.15
2022-10-02T22:36:39.433Z,2.20
2022-10-02T22:46:41.595Z,2.25
2022-10-02T22:56:42.946Z,2.22
2022-10-02T23:06:44.180Z,2.00
2022-10-02T23:16:45.395Z,2.03
2022-10-02T23:26:46.644Z,2.03
2022-10-02T23:36:47.882Z,2.13
2022-10-02T23:46:49.163Z,2.40
2022-10-02T23:56:50.398Z,1.83
